Chem Altamira — D5FU2 — position and weather

sailwx.info

Track history (hours):
 
Tides and Currents Weather Stations Pressure Air Temp Water Temp Dewpoint Dewpoint Depression Visibility Wind Speed Wind Dir Waves Ship Positions

Chem Altamira

Last reported at 2018-Jan-25 18:01 UTC. Time now 2018-Feb-20 13:42 UTC.
Position N 29°21' W 094°48'.
Warning: this ship's position is 25 days out of date.

Length 155 m; draft 9.1 m.

Type: Tanker. MMSI: 636016362.

Date/timePositionNaut miles runAvg speedWind from/ knotsBaromVisibWave heightAir tempDewpointWater temp
2018-Jan-25 18:01N 29°21' W 094°48'0 7.9
2018-Jan-25 18:01N 29°21' W 094°48'4 8.7
2018-Jan-25 17:31N 29°23' W 094°52'1 0.0
2018-Jan-24 10:49N 29°22' W 094°51'3 9.8
2018-Jan-24 10:29N 29°21' W 094°48'11 8.4
2018-Jan-24 09:07N 29°31' W 094°53'111.9
2018-Jan-24 09:01N 29°32' W 094°54'611.1
2018-Jan-24 08:31N 29°37' W 094°57'510.2
2018-Jan-24 07:59N 29°42' W 094°60'4 7.4
2018-Jan-24 07:28N 29°44' W 095°03'5 6.0
2018-Jan-24 06:42N 29°44' W 095°09'6 0.2
2018-Jan-23 07:31N 29°43' W 095°15'  
Track history (hours):
 
Tides and Currents Weather Stations Pressure Air Temp Water Temp Dewpoint Dewpoint Depression Visibility Wind Speed Wind Dir Waves Ship Positions

Chem Altamira

Last reported at 2018-Jan-25 18:01 UTC. Time now 2018-Feb-20 13:42 UTC.
Position N 29°21' W 094°48'.
Warning: this ship's position is 25 days out of date.

Length 155 m; draft 9.1 m.

Type: Tanker. MMSI: 636016362.

Date/timePositionNaut miles runAvg speedWind from/ knotsBaromVisibWave heightAir tempDewpointWater temp
2018-Jan-25 18:01N 29°21' W 094°48'0 7.9
2018-Jan-25 18:01N 29°21' W 094°48'4 8.7
2018-Jan-25 17:31N 29°23' W 094°52'1 0.0
2018-Jan-24 10:49N 29°22' W 094°51'3 9.8
2018-Jan-24 10:29N 29°21' W 094°48'11 8.4
2018-Jan-24 09:07N 29°31' W 094°53'111.9
2018-Jan-24 09:01N 29°32' W 094°54'611.1
2018-Jan-24 08:31N 29°37' W 094°57'510.2
2018-Jan-24 07:59N 29°42' W 094°60'4 7.4
2018-Jan-24 07:28N 29°44' W 095°03'5 6.0
2018-Jan-24 06:42N 29°44' W 095°09'6 0.2
2018-Jan-23 07:31N 29°43' W 095°15'  

Dump ship's entire track history